sensor_id;sensor_type;location;lat;lon;timestamp;temperature;humidity
11597;DHT22;5854;48.072;16.286;2023-07-29T00:00:07;24.20;47.80
11597;DHT22;5854;48.072;16.286;2023-07-29T00:02:36;24.10;47.40
11597;DHT22;5854;48.072;16.286;2023-07-29T00:05:04;24.20;47.90
11597;DHT22;5854;48.072;16.286;2023-07-29T00:07:32;24.10;47.30
11597;DHT22;5854;48.072;16.286;2023-07-29T00:10:00;24.00;47.60
11597;DHT22;5854;48.072;16.286;2023-07-29T00:12:30;24.00;47.90
11597;DHT22;5854;48.072;16.286;2023-07-29T00:14:58;24.00;47.70
11597;DHT22;5854;48.072;16.286;2023-07-29T00:17:26;24.00;47.50
11597;DHT22;5854;48.072;16.286;2023-07-29T00:19:55;24.00;47.40
11597;DHT22;5854;48.072;16.286;2023-07-29T00:22:24;24.00;47.60
11597;DHT22;5854;48.072;16.286;2023-07-29T00:24:53;24.00;48.00
11597;DHT22;5854;48.072;16.286;2023-07-29T00:27:23;24.00;47.40
11597;DHT22;5854;48.072;16.286;2023-07-29T00:29:53;24.00;47.50
11597;DHT22;5854;48.072;16.286;2023-07-29T00:32:22;23.90;47.50
11597;DHT22;5854;48.072;16.286;2023-07-29T00:34:50;23.90;47.50
11597;DHT22;5854;48.072;16.286;2023-07-29T00:37:18;24.00;47.50
11597;DHT22;5854;48.072;16.286;2023-07-29T00:39:47;24.00;47.50
11597;DHT22;5854;48.072;16.286;2023-07-29T00:42:15;24.00;47.40
11597;DHT22;5854;48.072;16.286;2023-07-29T00:44:43;24.00;47.50
11597;DHT22;5854;48.072;16.286;2023-07-29T00:47:15;24.00;48.00
11597;DHT22;5854;48.072;16.286;2023-07-29T00:49:46;23.90;47.60
11597;DHT22;5854;48.072;16.286;2023-07-29T00:52:14;23.80;47.80
11597;DHT22;5854;48.072;16.286;2023-07-29T00:54:43;23.90;48.30
11597;DHT22;5854;48.072;16.286;2023-07-29T00:57:14;23.90;47.90
11597;DHT22;5854;48.072;16.286;2023-07-29T00:59:43;23.90;48.00
11597;DHT22;5854;48.072;16.286;2023-07-29T01:02:11;24.00;47.70
11597;DHT22;5854;48.072;16.286;2023-07-29T01:04:43;24.00;47.60
11597;DHT22;5854;48.072;16.286;2023-07-29T01:07:16;23.90;48.40
11597;DHT22;5854;48.072;16.286;2023-07-29T01:09:55;24.00;47.80
11597;DHT22;5854;48.072;16.286;2023-07-29T01:12:33;23.90;49.10
11597;DHT22;5854;48.072;16.286;2023-07-29T01:15:10;23.80;48.40
11597;DHT22;5854;48.072;16.286;2023-07-29T01:17:46;23.70;47.80
11597;DHT22;5854;48.072;16.286;2023-07-29T01:20:17;23.80;48.70
11597;DHT22;5854;48.072;16.286;2023-07-29T01:22:50;23.80;48.80
11597;DHT22;5854;48.072;16.286;2023-07-29T01:25:20;23.70;49.70
11597;DHT22;5854;48.072;16.286;2023-07-29T01:27:51;23.70;49.00
11597;DHT22;5854;48.072;16.286;2023-07-29T01:30:21;23.60;49.20
11597;DHT22;5854;48.072;16.286;2023-07-29T01:32:56;23.60;47.90
11597;DHT22;5854;48.072;16.286;2023-07-29T01:35:32;23.60;49.90
11597;DHT22;5854;48.072;16.286;2023-07-29T01:38:05;23.70;49.00
11597;DHT22;5854;48.072;16.286;2023-07-29T01:40:36;23.70;48.00
11597;DHT22;5854;48.072;16.286;2023-07-29T01:43:05;23.70;48.00
11597;DHT22;5854;48.072;16.286;2023-07-29T01:45:34;23.70;50.40
11597;DHT22;5854;48.072;16.286;2023-07-29T01:48:04;23.70;48.50
11597;DHT22;5854;48.072;16.286;2023-07-29T01:50:33;23.70;49.40
11597;DHT22;5854;48.072;16.286;2023-07-29T01:53:01;23.70;48.40
11597;DHT22;5854;48.072;16.286;2023-07-29T01:55:30;23.70;47.90
11597;DHT22;5854;48.072;16.286;2023-07-29T01:57:59;23.60;48.50
11597;DHT22;5854;48.072;16.286;2023-07-29T02:00:28;23.60;49.30
11597;DHT22;5854;48.072;16.286;2023-07-29T02:02:55;23.60;48.10
11597;DHT22;5854;48.072;16.286;2023-07-29T02:05:24;23.70;48.60
11597;DHT22;5854;48.072;16.286;2023-07-29T02:07:52;23.60;48.10
11597;DHT22;5854;48.072;16.286;2023-07-29T02:10:20;23.60;50.30
11597;DHT22;5854;48.072;16.286;2023-07-29T02:12:48;23.50;49.90
11597;DHT22;5854;48.072;16.286;2023-07-29T02:15:19;23.50;48.40
11597;DHT22;5854;48.072;16.286;2023-07-29T02:17:50;23.40;50.20
11597;DHT22;5854;48.072;16.286;2023-07-29T02:20:19;23.50;48.40
11597;DHT22;5854;48.072;16.286;2023-07-29T02:22:48;23.60;49.30
11597;DHT22;5854;48.072;16.286;2023-07-29T02:25:16;23.30;50.30
11597;DHT22;5854;48.072;16.286;2023-07-29T02:27:44;23.20;49.90
11597;DHT22;5854;48.072;16.286;2023-07-29T02:30:13;23.30;49.60
11597;DHT22;5854;48.072;16.286;2023-07-29T02:32:48;23.30;49.10
11597;DHT22;5854;48.072;16.286;2023-07-29T02:35:16;23.30;49.00
11597;DHT22;5854;48.072;16.286;2023-07-29T02:37:47;23.40;48.50
11597;DHT22;5854;48.072;16.286;2023-07-29T02:40:16;23.40;48.70
11597;DHT22;5854;48.072;16.286;2023-07-29T02:42:46;23.40;48.50
11597;DHT22;5854;48.072;16.286;2023-07-29T02:45:15;23.30;48.60
11597;DHT22;5854;48.072;16.286;2023-07-29T02:47:46;23.20;48.60
11597;DHT22;5854;48.072;16.286;2023-07-29T02:50:15;23.30;48.40
11597;DHT22;5854;48.072;16.286;2023-07-29T02:52:43;23.30;48.00
11597;DHT22;5854;48.072;16.286;2023-07-29T02:55:11;23.40;47.60
11597;DHT22;5854;48.072;16.286;2023-07-29T02:57:40;23.40;47.90
11597;DHT22;5854;48.072;16.286;2023-07-29T03:00:09;23.40;47.90
11597;DHT22;5854;48.072;16.286;2023-07-29T03:02:39;23.50;47.70
11597;DHT22;5854;48.072;16.286;2023-07-29T03:05:09;23.40;47.40
11597;DHT22;5854;48.072;16.286;2023-07-29T03:07:38;23.40;47.80
11597;DHT22;5854;48.072;16.286;2023-07-29T03:10:06;23.40;47.90
11597;DHT22;5854;48.072;16.286;2023-07-29T03:12:35;23.40;47.80
11597;DHT22;5854;48.072;16.286;2023-07-29T03:15:04;23.40;48.10
11597;DHT22;5854;48.072;16.286;2023-07-29T03:17:32;23.40;47.80
11597;DHT22;5854;48.072;16.286;2023-07-29T03:20:01;23.40;48.10
11597;DHT22;5854;48.072;16.286;2023-07-29T03:22:32;23.40;49.10
11597;DHT22;5854;48.072;16.286;2023-07-29T03:25:00;23.40;48.60
11597;DHT22;5854;48.072;16.286;2023-07-29T03:27:29;23.40;49.00
11597;DHT22;5854;48.072;16.286;2023-07-29T03:29:57;23.30;48.70
11597;DHT22;5854;48.072;16.286;2023-07-29T03:32:26;23.20;48.60
11597;DHT22;5854;48.072;16.286;2023-07-29T03:34:55;23.30;49.00
11597;DHT22;5854;48.072;16.286;2023-07-29T03:37:24;23.30;48.30
11597;DHT22;5854;48.072;16.286;2023-07-29T03:39:54;23.30;48.50
11597;DHT22;5854;48.072;16.286;2023-07-29T03:42:22;23.20;49.30
11597;DHT22;5854;48.072;16.286;2023-07-29T03:44:50;23.20;49.90
11597;DHT22;5854;48.072;16.286;2023-07-29T03:47:18;23.20;49.10
11597;DHT22;5854;48.072;16.286;2023-07-29T03:49:46;23.10;48.80
11597;DHT22;5854;48.072;16.286;2023-07-29T03:52:15;23.10;48.20
11597;DHT22;5854;48.072;16.286;2023-07-29T03:54:43;23.10;48.10
11597;DHT22;5854;48.072;16.286;2023-07-29T03:57:13;23.10;48.30
11597;DHT22;5854;48.072;16.286;2023-07-29T03:59:41;23.10;48.60
11597;DHT22;5854;48.072;16.286;2023-07-29T04:02:09;23.10;48.50
11597;DHT22;5854;48.072;16.286;2023-07-29T04:04:37;23.00;47.80
11597;DHT22;5854;48.072;16.286;2023-07-29T04:07:07;23.00;48.30
11597;DHT22;5854;48.072;16.286;2023-07-29T04:09:36;23.10;48.30
11597;DHT22;5854;48.072;16.286;2023-07-29T04:12:04;23.10;48.30
11597;DHT22;5854;48.072;16.286;2023-07-29T04:14:35;23.10;48.50
11597;DHT22;5854;48.072;16.286;2023-07-29T04:17:04;23.10;47.90
11597;DHT22;5854;48.072;16.286;2023-07-29T04:19:32;23.00;47.90
11597;DHT22;5854;48.072;16.286;2023-07-29T04:22:01;22.90;49.10
11597;DHT22;5854;48.072;16.286;2023-07-29T04:24:29;23.00;48.60
11597;DHT22;5854;48.072;16.286;2023-07-29T04:26:58;23.00;48.40
11597;DHT22;5854;48.072;16.286;2023-07-29T04:29:26;23.00;48.40
11597;DHT22;5854;48.072;16.286;2023-07-29T04:31:57;23.00;48.30
11597;DHT22;5854;48.072;16.286;2023-07-29T04:34:27;23.00;48.20
11597;DHT22;5854;48.072;16.286;2023-07-29T04:36:55;23.10;48.30
11597;DHT22;5854;48.072;16.286;2023-07-29T04:39:24;23.00;48.50
11597;DHT22;5854;48.072;16.286;2023-07-29T04:41:54;23.00;48.40
11597;DHT22;5854;48.072;16.286;2023-07-29T04:44:23;22.90;49.00
11597;DHT22;5854;48.072;16.286;2023-07-29T04:46:51;22.90;48.50
11597;DHT22;5854;48.072;16.286;2023-07-29T04:49:22;22.90;49.40
11597;DHT22;5854;48.072;16.286;2023-07-29T04:51:51;23.00;48.40
11597;DHT22;5854;48.072;16.286;2023-07-29T04:54:21;23.10;48.10
11597;DHT22;5854;48.072;16.286;2023-07-29T04:56:49;23.10;48.10
11597;DHT22;5854;48.072;16.286;2023-07-29T04:59:18;23.10;49.30
11597;DHT22;5854;48.072;16.286;2023-07-29T05:01:46;23.10;48.00
11597;DHT22;5854;48.072;16.286;2023-07-29T05:04:14;23.10;48.70
11597;DHT22;5854;48.072;16.286;2023-07-29T05:06:45;23.10;48.70
11597;DHT22;5854;48.072;16.286;2023-07-29T05:09:15;23.10;48.00
11597;DHT22;5854;48.072;16.286;2023-07-29T05:11:46;23.10;48.00
11597;DHT22;5854;48.072;16.286;2023-07-29T05:14:16;23.20;48.00
11597;DHT22;5854;48.072;16.286;2023-07-29T05:16:45;23.20;50.20
11597;DHT22;5854;48.072;16.286;2023-07-29T05:19:13;23.00;48.30
11597;DHT22;5854;48.072;16.286;2023-07-29T05:21:45;23.10;48.50
11597;DHT22;5854;48.072;16.286;2023-07-29T05:24:14;23.00;48.40
11597;DHT22;5854;48.072;16.286;2023-07-29T05:26:42;23.10;48.00
11597;DHT22;5854;48.072;16.286;2023-07-29T05:29:14;23.20;48.30
11597;DHT22;5854;48.072;16.286;2023-07-29T05:31:43;23.20;48.30
11597;DHT22;5854;48.072;16.286;2023-07-29T05:34:13;23.30;47.90
11597;DHT22;5854;48.072;16.286;2023-07-29T05:36:43;23.30;47.60
11597;DHT22;5854;48.072;16.286;2023-07-29T05:39:12;23.20;48.00
11597;DHT22;5854;48.072;16.286;2023-07-29T05:41:40;23.20;47.80
11597;DHT22;5854;48.072;16.286;2023-07-29T05:44:08;23.20;48.20
11597;DHT22;5854;48.072;16.286;2023-07-29T05:46:36;23.10;48.60
11597;DHT22;5854;48.072;16.286;2023-07-29T05:49:04;23.10;48.90
11597;DHT22;5854;48.072;16.286;2023-07-29T05:51:33;23.10;48.90
11597;DHT22;5854;48.072;16.286;2023-07-29T05:54:04;23.10;49.50
11597;DHT22;5854;48.072;16.286;2023-07-29T05:56:34;23.10;49.10
11597;DHT22;5854;48.072;16.286;2023-07-29T05:59:03;23.20;49.20
11597;DHT22;5854;48.072;16.286;2023-07-29T06:01:32;23.20;50.00
11597;DHT22;5854;48.072;16.286;2023-07-29T06:04:05;23.20;48.50
11597;DHT22;5854;48.072;16.286;2023-07-29T06:06:33;23.30;49.50
11597;DHT22;5854;48.072;16.286;2023-07-29T06:09:05;23.30;47.90
11597;DHT22;5854;48.072;16.286;2023-07-29T06:11:33;23.30;48.40
11597;DHT22;5854;48.072;16.286;2023-07-29T06:14:02;23.30;47.60
11597;DHT22;5854;48.072;16.286;2023-07-29T06:16:33;23.50;47.20
11597;DHT22;5854;48.072;16.286;2023-07-29T06:19:01;23.50;47.40
11597;DHT22;5854;48.072;16.286;2023-07-29T06:21:29;23.40;47.60
11597;DHT22;5854;48.072;16.286;2023-07-29T06:23:57;23.50;47.30
11597;DHT22;5854;48.072;16.286;2023-07-29T06:26:29;23.40;47.30
11597;DHT22;5854;48.072;16.286;2023-07-29T06:28:56;23.40;47.30
11597;DHT22;5854;48.072;16.286;2023-07-29T06:31:24;23.40;48.10
11597;DHT22;5854;48.072;16.286;2023-07-29T06:33:54;23.50;47.30
11597;DHT22;5854;48.072;16.286;2023-07-29T06:36:27;23.50;46.90
11597;DHT22;5854;48.072;16.286;2023-07-29T06:38:57;23.60;47.90
11597;DHT22;5854;48.072;16.286;2023-07-29T06:41:32;23.50;47.10
11597;DHT22;5854;48.072;16.286;2023-07-29T06:44:03;23.50;47.80
11597;DHT22;5854;48.072;16.286;2023-07-29T06:46:34;23.60;47.20
11597;DHT22;5854;48.072;16.286;2023-07-29T06:49:02;23.60;47.10
11597;DHT22;5854;48.072;16.286;2023-07-29T06:51:31;23.80;47.10
11597;DHT22;5854;48.072;16.286;2023-07-29T06:54:01;23.80;47.70
11597;DHT22;5854;48.072;16.286;2023-07-29T06:56:43;23.70;47.90
11597;DHT22;5854;48.072;16.286;2023-07-29T06:59:13;23.80;46.80
11597;DHT22;5854;48.072;16.286;2023-07-29T07:01:41;23.80;49.00
11597;DHT22;5854;48.072;16.286;2023-07-29T07:04:16;23.90;47.00
11597;DHT22;5854;48.072;16.286;2023-07-29T07:06:44;24.00;46.40
11597;DHT22;5854;48.072;16.286;2023-07-29T07:09:13;23.90;47.10
11597;DHT22;5854;48.072;16.286;2023-07-29T07:11:46;24.00;47.00
11597;DHT22;5854;48.072;16.286;2023-07-29T07:14:14;24.10;47.80
11597;DHT22;5854;48.072;16.286;2023-07-29T07:16:42;24.10;47.30
11597;DHT22;5854;48.072;16.286;2023-07-29T07:19:11;24.20;46.90
11597;DHT22;5854;48.072;16.286;2023-07-29T07:21:40;24.20;47.30
11597;DHT22;5854;48.072;16.286;2023-07-29T07:24:11;24.30;46.50
11597;DHT22;5854;48.072;16.286;2023-07-29T07:26:39;24.40;48.50
11597;DHT22;5854;48.072;16.286;2023-07-29T07:29:10;24.40;46.50
11597;DHT22;5854;48.072;16.286;2023-07-29T07:31:50;24.40;45.50
11597;DHT22;5854;48.072;16.286;2023-07-29T07:34:21;24.40;49.80
11597;DHT22;5854;48.072;16.286;2023-07-29T07:36:52;24.50;47.20
11597;DHT22;5854;48.072;16.286;2023-07-29T07:39:22;24.60;47.70
11597;DHT22;5854;48.072;16.286;2023-07-29T07:41:50;24.50;45.60
11597;DHT22;5854;48.072;16.286;2023-07-29T07:44:21;24.60;50.10
11597;DHT22;5854;48.072;16.286;2023-07-29T07:46:53;24.60;45.40
11597;DHT22;5854;48.072;16.286;2023-07-29T07:49:22;24.60;45.90
11597;DHT22;5854;48.072;16.286;2023-07-29T07:51:50;24.70;47.60
11597;DHT22;5854;48.072;16.286;2023-07-29T07:54:19;24.70;48.90
11597;DHT22;5854;48.072;16.286;2023-07-29T07:56:49;25.50;44.70
11597;DHT22;5854;48.072;16.286;2023-07-29T07:59:25;25.60;45.80
11597;DHT22;5854;48.072;16.286;2023-07-29T08:01:55;25.40;45.60
11597;DHT22;5854;48.072;16.286;2023-07-29T08:06:59;25.10;46.70
11597;DHT22;5854;48.072;16.286;2023-07-29T08:09:27;25.10;45.70
11597;DHT22;5854;48.072;16.286;2023-07-29T08:11:56;25.10;45.80
11597;DHT22;5854;48.072;16.286;2023-07-29T08:14:25;25.10;45.10
11597;DHT22;5854;48.072;16.286;2023-07-29T08:16:55;25.20;45.80
11597;DHT22;5854;48.072;16.286;2023-07-29T08:19:28;25.20;45.40
11597;DHT22;5854;48.072;16.286;2023-07-29T08:21:57;25.20;44.10
11597;DHT22;5854;48.072;16.286;2023-07-29T08:24:26;25.30;44.20
11597;DHT22;5854;48.072;16.286;2023-07-29T08:26:54;25.50;43.60
11597;DHT22;5854;48.072;16.286;2023-07-29T08:29:29;25.60;42.80
11597;DHT22;5854;48.072;16.286;2023-07-29T08:31:57;25.60;42.10
11597;DHT22;5854;48.072;16.286;2023-07-29T08:34:29;25.50;43.10
11597;DHT22;5854;48.072;16.286;2023-07-29T08:37:03;25.60;43.10
11597;DHT22;5854;48.072;16.286;2023-07-29T08:39:31;25.70;42.30
11597;DHT22;5854;48.072;16.286;2023-07-29T08:42:02;25.70;41.60
11597;DHT22;5854;48.072;16.286;2023-07-29T08:44:40;25.90;42.50
11597;DHT22;5854;48.072;16.286;2023-07-29T08:47:13;26.10;41.70
11597;DHT22;5854;48.072;16.286;2023-07-29T08:49:54;26.10;42.30
11597;DHT22;5854;48.072;16.286;2023-07-29T08:52:22;26.40;40.80
11597;DHT22;5854;48.072;16.286;2023-07-29T08:54:54;26.20;40.80
11597;DHT22;5854;48.072;16.286;2023-07-29T08:57:23;26.60;41.60
11597;DHT22;5854;48.072;16.286;2023-07-29T08:59:58;26.40;40.90
11597;DHT22;5854;48.072;16.286;2023-07-29T09:02:39;26.30;41.10
11597;DHT22;5854;48.072;16.286;2023-07-29T09:05:08;26.50;40.80
11597;DHT22;5854;48.072;16.286;2023-07-29T09:07:38;26.30;40.60
11597;DHT22;5854;48.072;16.286;2023-07-29T09:10:09;26.30;40.60
11597;DHT22;5854;48.072;16.286;2023-07-29T09:12:38;26.60;41.40
11597;DHT22;5854;48.072;16.286;2023-07-29T09:15:10;26.70;40.00
11597;DHT22;5854;48.072;16.286;2023-07-29T09:17:40;26.80;39.80
11597;DHT22;5854;48.072;16.286;2023-07-29T09:20:11;26.90;39.80
11597;DHT22;5854;48.072;16.286;2023-07-29T09:22:40;27.10;40.20
11597;DHT22;5854;48.072;16.286;2023-07-29T09:25:14;27.20;41.10
11597;DHT22;5854;48.072;16.286;2023-07-29T09:27:43;27.50;39.20
11597;DHT22;5854;48.072;16.286;2023-07-29T09:30:20;27.00;39.40
11597;DHT22;5854;48.072;16.286;2023-07-29T09:32:55;27.00;39.80
11597;DHT22;5854;48.072;16.286;2023-07-29T09:35:24;26.90;39.40
11597;DHT22;5854;48.072;16.286;2023-07-29T09:37:55;27.20;39.90
11597;DHT22;5854;48.072;16.286;2023-07-29T09:40:25;27.60;38.90
11597;DHT22;5854;48.072;16.286;2023-07-29T09:42:56;27.70;39.00
11597;DHT22;5854;48.072;16.286;2023-07-29T09:45:29;27.80;39.10
11597;DHT22;5854;48.072;16.286;2023-07-29T09:48:02;27.70;39.00
11597;DHT22;5854;48.072;16.286;2023-07-29T09:50:35;27.60;39.40
11597;DHT22;5854;48.072;16.286;2023-07-29T09:53:03;27.90;39.30
11597;DHT22;5854;48.072;16.286;2023-07-29T09:55:34;28.10;39.70
11597;DHT22;5854;48.072;16.286;2023-07-29T09:58:03;28.20;40.20
11597;DHT22;5854;48.072;16.286;2023-07-29T10:00:35;28.30;38.20
11597;DHT22;5854;48.072;16.286;2023-07-29T10:03:04;27.90;38.70
11597;DHT22;5854;48.072;16.286;2023-07-29T10:05:35;27.80;38.50
11597;DHT22;5854;48.072;16.286;2023-07-29T10:08:05;27.80;39.30
11597;DHT22;5854;48.072;16.286;2023-07-29T10:10:37;27.80;38.80
11597;DHT22;5854;48.072;16.286;2023-07-29T10:13:06;27.80;38.10
11597;DHT22;5854;48.072;16.286;2023-07-29T10:15:38;27.90;38.50
11597;DHT22;5854;48.072;16.286;2023-07-29T10:18:08;27.90;38.70
11597;DHT22;5854;48.072;16.286;2023-07-29T10:20:39;27.90;38.70
11597;DHT22;5854;48.072;16.286;2023-07-29T10:23:13;27.90;38.50
11597;DHT22;5854;48.072;16.286;2023-07-29T10:25:47;27.70;38.90
11597;DHT22;5854;48.072;16.286;2023-07-29T10:28:20;27.70;39.80
11597;DHT22;5854;48.072;16.286;2023-07-29T10:30:55;27.80;40.20
11597;DHT22;5854;48.072;16.286;2023-07-29T10:33:25;27.90;39.00
11597;DHT22;5854;48.072;16.286;2023-07-29T10:35:55;28.20;39.90
11597;DHT22;5854;48.072;16.286;2023-07-29T10:38:25;28.30;38.50
11597;DHT22;5854;48.072;16.286;2023-07-29T10:40:57;28.30;37.50
11597;DHT22;5854;48.072;16.286;2023-07-29T10:43:32;28.20;38.20
11597;DHT22;5854;48.072;16.286;2023-07-29T10:46:28;28.00;38.60
11597;DHT22;5854;48.072;16.286;2023-07-29T10:49:04;28.10;38.70
11597;DHT22;5854;48.072;16.286;2023-07-29T10:51:35;28.10;38.80
11597;DHT22;5854;48.072;16.286;2023-07-29T10:54:10;28.10;37.90
11597;DHT22;5854;48.072;16.286;2023-07-29T10:56:48;28.10;40.40
11597;DHT22;5854;48.072;16.286;2023-07-29T10:59:32;28.10;39.40
11597;DHT22;5854;48.072;16.286;2023-07-29T11:02:12;28.00;39.60
11597;DHT22;5854;48.072;16.286;2023-07-29T11:04:47;27.90;38.30
11597;DHT22;5854;48.072;16.286;2023-07-29T11:07:21;27.90;39.70
11597;DHT22;5854;48.072;16.286;2023-07-29T11:10:00;28.00;39.40
11597;DHT22;5854;48.072;16.286;2023-07-29T11:12:38;28.10;38.10
11597;DHT22;5854;48.072;16.286;2023-07-29T11:15:16;28.20;38.30
11597;DHT22;5854;48.072;16.286;2023-07-29T11:17:53;28.20;39.00
11597;DHT22;5854;48.072;16.286;2023-07-29T11:20:25;28.10;41.80
11597;DHT22;5854;48.072;16.286;2023-07-29T11:22:55;28.10;40.00
11597;DHT22;5854;48.072;16.286;2023-07-29T11:25:30;28.00;39.90
11597;DHT22;5854;48.072;16.286;2023-07-29T11:28:02;28.10;40.00
11597;DHT22;5854;48.072;16.286;2023-07-29T11:30:34;28.20;42.80
11597;DHT22;5854;48.072;16.286;2023-07-29T11:33:10;28.30;39.70
11597;DHT22;5854;48.072;16.286;2023-07-29T11:35:40;28.40;39.10
11597;DHT22;5854;48.072;16.286;2023-07-29T11:38:15;28.60;39.00
11597;DHT22;5854;48.072;16.286;2023-07-29T11:40:57;28.70;39.90
11597;DHT22;5854;48.072;16.286;2023-07-29T11:43:29;28.80;37.90
11597;DHT22;5854;48.072;16.286;2023-07-29T11:46:04;28.70;38.30
11597;DHT22;5854;48.072;16.286;2023-07-29T11:48:44;28.70;38.00
11597;DHT22;5854;48.072;16.286;2023-07-29T11:51:17;28.70;37.80
11597;DHT22;5854;48.072;16.286;2023-07-29T11:53:50;28.60;37.50
11597;DHT22;5854;48.072;16.286;2023-07-29T11:56:23;28.70;38.40
11597;DHT22;5854;48.072;16.286;2023-07-29T11:58:55;28.90;37.80
11597;DHT22;5854;48.072;16.286;2023-07-29T12:01:24;29.00;37.20
11597;DHT22;5854;48.072;16.286;2023-07-29T12:04:06;29.20;38.80
11597;DHT22;5854;48.072;16.286;2023-07-29T12:06:37;29.40;37.30
11597;DHT22;5854;48.072;16.286;2023-07-29T12:09:07;29.10;37.60
11597;DHT22;5854;48.072;16.286;2023-07-29T12:11:37;29.00;37.70
11597;DHT22;5854;48.072;16.286;2023-07-29T12:14:08;28.80;37.70
11597;DHT22;5854;48.072;16.286;2023-07-29T12:16:42;28.70;38.20
11597;DHT22;5854;48.072;16.286;2023-07-29T12:19:17;28.60;38.60
11597;DHT22;5854;48.072;16.286;2023-07-29T12:21:51;28.50;39.10
11597;DHT22;5854;48.072;16.286;2023-07-29T12:24:23;28.30;42.40
11597;DHT22;5854;48.072;16.286;2023-07-29T12:26:55;28.10;43.40
11597;DHT22;5854;48.072;16.286;2023-07-29T12:29:25;28.30;40.90
11597;DHT22;5854;48.072;16.286;2023-07-29T12:31:59;28.40;38.00
11597;DHT22;5854;48.072;16.286;2023-07-29T12:34:31;28.50;38.70
11597;DHT22;5854;48.072;16.286;2023-07-29T12:37:03;28.50;38.70
11597;DHT22;5854;48.072;16.286;2023-07-29T12:39:38;28.40;39.50
11597;DHT22;5854;48.072;16.286;2023-07-29T12:42:09;28.40;39.30
11597;DHT22;5854;48.072;16.286;2023-07-29T12:44:39;28.40;38.70
11597;DHT22;5854;48.072;16.286;2023-07-29T12:47:08;30.00;36.90
11597;DHT22;5854;48.072;16.286;2023-07-29T12:49:41;29.90;36.30
11597;DHT22;5854;48.072;16.286;2023-07-29T12:52:11;29.30;36.60
11597;DHT22;5854;48.072;16.286;2023-07-29T12:54:41;29.10;37.00
11597;DHT22;5854;48.072;16.286;2023-07-29T12:57:11;29.00;37.90
11597;DHT22;5854;48.072;16.286;2023-07-29T12:59:40;29.00;37.40
11597;DHT22;5854;48.072;16.286;2023-07-29T13:02:09;28.90;36.90
11597;DHT22;5854;48.072;16.286;2023-07-29T13:04:38;28.90;36.80
11597;DHT22;5854;48.072;16.286;2023-07-29T13:07:13;28.90;37.00
11597;DHT22;5854;48.072;16.286;2023-07-29T13:09:43;28.70;37.80
11597;DHT22;5854;48.072;16.286;2023-07-29T13:12:14;28.80;37.70
11597;DHT22;5854;48.072;16.286;2023-07-29T13:14:48;28.80;37.90
11597;DHT22;5854;48.072;16.286;2023-07-29T13:17:20;28.80;37.30
11597;DHT22;5854;48.072;16.286;2023-07-29T13:19:52;28.80;37.00
11597;DHT22;5854;48.072;16.286;2023-07-29T13:22:20;28.90;37.40
11597;DHT22;5854;48.072;16.286;2023-07-29T13:24:51;28.80;36.30
11597;DHT22;5854;48.072;16.286;2023-07-29T13:27:20;29.00;37.20
11597;DHT22;5854;48.072;16.286;2023-07-29T13:29:51;29.00;37.30
11597;DHT22;5854;48.072;16.286;2023-07-29T13:32:23;29.00;37.40
11597;DHT22;5854;48.072;16.286;2023-07-29T13:34:55;29.00;35.40
11597;DHT22;5854;48.072;16.286;2023-07-29T13:37:25;29.20;37.10
11597;DHT22;5854;48.072;16.286;2023-07-29T13:39:57;29.50;34.20
11597;DHT22;5854;48.072;16.286;2023-07-29T13:42:26;29.70;35.20
11597;DHT22;5854;48.072;16.286;2023-07-29T13:44:56;29.70;35.10
11597;DHT22;5854;48.072;16.286;2023-07-29T13:47:28;29.60;36.10
11597;DHT22;5854;48.072;16.286;2023-07-29T13:50:08;29.50;36.20
11597;DHT22;5854;48.072;16.286;2023-07-29T13:52:40;29.40;37.00
11597;DHT22;5854;48.072;16.286;2023-07-29T13:55:12;29.40;36.40
11597;DHT22;5854;48.072;16.286;2023-07-29T13:57:43;29.40;35.90
11597;DHT22;5854;48.072;16.286;2023-07-29T14:00:13;29.40;35.90
11597;DHT22;5854;48.072;16.286;2023-07-29T14:02:42;29.40;35.20
11597;DHT22;5854;48.072;16.286;2023-07-29T14:05:20;29.40;37.40
11597;DHT22;5854;48.072;16.286;2023-07-29T14:07:53;29.20;37.10
11597;DHT22;5854;48.072;16.286;2023-07-29T14:10:26;29.20;37.30
11597;DHT22;5854;48.072;16.286;2023-07-29T14:12:59;29.20;36.10
11597;DHT22;5854;48.072;16.286;2023-07-29T14:15:32;29.20;37.50
11597;DHT22;5854;48.072;16.286;2023-07-29T14:18:05;29.20;37.70
11597;DHT22;5854;48.072;16.286;2023-07-29T14:20:44;29.40;36.50
11597;DHT22;5854;48.072;16.286;2023-07-29T14:23:21;29.60;36.10
11597;DHT22;5854;48.072;16.286;2023-07-29T14:25:56;29.70;35.90
11597;DHT22;5854;48.072;16.286;2023-07-29T14:28:26;29.70;36.80
11597;DHT22;5854;48.072;16.286;2023-07-29T14:31:05;29.60;36.30
11597;DHT22;5854;48.072;16.286;2023-07-29T14:33:41;29.70;35.60
11597;DHT22;5854;48.072;16.286;2023-07-29T14:36:22;29.80;36.00
11597;DHT22;5854;48.072;16.286;2023-07-29T14:38:55;29.80;36.00
11597;DHT22;5854;48.072;16.286;2023-07-29T14:41:36;29.80;36.20
11597;DHT22;5854;48.072;16.286;2023-07-29T14:44:17;29.80;34.90
11597;DHT22;5854;48.072;16.286;2023-07-29T14:46:49;29.70;35.70
11597;DHT22;5854;48.072;16.286;2023-07-29T14:49:20;29.70;36.20
11597;DHT22;5854;48.072;16.286;2023-07-29T14:51:58;29.60;38.20
11597;DHT22;5854;48.072;16.286;2023-07-29T14:54:35;29.40;38.70
11597;DHT22;5854;48.072;16.286;2023-07-29T14:57:10;29.60;37.80
11597;DHT22;5854;48.072;16.286;2023-07-29T14:59:44;29.50;38.50
11597;DHT22;5854;48.072;16.286;2023-07-29T15:02:15;29.40;38.80
11597;DHT22;5854;48.072;16.286;2023-07-29T15:04:48;28.90;39.00
11597;DHT22;5854;48.072;16.286;2023-07-29T15:07:33;29.10;39.60
11597;DHT22;5854;48.072;16.286;2023-07-29T15:10:13;29.20;41.00
11597;DHT22;5854;48.072;16.286;2023-07-29T15:12:50;29.20;38.00
11597;DHT22;5854;48.072;16.286;2023-07-29T15:15:28;29.40;36.70
11597;DHT22;5854;48.072;16.286;2023-07-29T15:18:04;29.60;36.90
11597;DHT22;5854;48.072;16.286;2023-07-29T15:20:39;29.70;36.60
11597;DHT22;5854;48.072;16.286;2023-07-29T15:23:13;29.80;37.20
11597;DHT22;5854;48.072;16.286;2023-07-29T15:25:43;29.80;37.00
11597;DHT22;5854;48.072;16.286;2023-07-29T15:28:14;29.60;37.20
11597;DHT22;5854;48.072;16.286;2023-07-29T15:30:50;29.60;37.50
11597;DHT22;5854;48.072;16.286;2023-07-29T15:33:23;29.60;36.40
11597;DHT22;5854;48.072;16.286;2023-07-29T15:35:56;29.70;37.30
11597;DHT22;5854;48.072;16.286;2023-07-29T15:38:34;29.60;36.40
11597;DHT22;5854;48.072;16.286;2023-07-29T15:41:11;29.50;37.90
11597;DHT22;5854;48.072;16.286;2023-07-29T15:43:46;29.60;37.70
11597;DHT22;5854;48.072;16.286;2023-07-29T15:46:18;29.50;37.50
11597;DHT22;5854;48.072;16.286;2023-07-29T15:48:47;29.30;37.50
11597;DHT22;5854;48.072;16.286;2023-07-29T15:51:18;29.40;37.70
11597;DHT22;5854;48.072;16.286;2023-07-29T15:53:54;29.50;37.20
11597;DHT22;5854;48.072;16.286;2023-07-29T15:56:24;29.60;37.80